Thunder radar more information blitzortung!


avis per Pluja more information rain snow radar


Visita la nostra xarxa de llocs de meteo:

Template documentation
and downloads

And another site



Rain From: 17-10-2018 23:00 Until: 18-10-2018 16:59 warning for: Rain Level: Yellow info button

Pagina Historial Weather Underground text

Diari Resum Octubre 16, 2017 Unitats:  Imperial    Mètric   Tant
« Previous Dia
SegĂźent Dia »
Diari Setmana Mensual Anual Personalitzada
  Maxima: Minima: Media:
Temperatura: TemperatureC °F 14.5 °F 18.9 °F
Punt de rosada: DewpointC °F 12.2 °F 14.2 °F
Humitat: Humidity % 55 % 75 %
Wind Speed: WindSpeedKMH mph 0.0 mph 3 mph
RĂ fegues de vent: WindSpeedGustKMH mph - -
Vent:- - SSE
Pression baro: PressurehPa in 1023.9 in -
Precipitacions: 0.0 in    
Historical Graphs
 
 
Dades de taula per Octubre 16, 2017
Temps Temperatura Punt de rosada Pression baro Vent Wind Speed RĂ fegues de vent Humitat Rainfall Rate (Hourly)
TemperatureC °F DewpointC °F PressurehPa in Calm     Humidity % HourlyPrecipMM in
00:00 18.1 °F 15.0 °F 1027.0 in Calm     82 % 0.0 in
00:05 18.0 °F 14.9 °F 1027.0 in Calm     82 % 0.0 in
00:10 18.0 °F 14.9 °F 1027.0 in Calm     82 % 0.0 in
00:15 17.9 °F 14.9 °F 1027.0 in Calm     83 % 0.0 in
00:20 17.9 °F 14.9 °F 1027.0 in Calm     83 % 0.0 in
00:25 17.8 °F 14.9 °F 1027.0 in Calm     83 % 0.0 in
00:30 17.8 °F 14.9 °F 1027.0 in Calm     83 % 0.0 in
00:35 17.8 °F 14.9 °F 1027.0 in Calm     83 % 0.0 in
00:40 17.7 °F 14.8 °F 1027.0 in Calm     83 % 0.0 in
00:45 17.7 °F 14.9 °F 1027.0 in Calm     84 % 0.0 in
00:50 17.6 °F 14.9 °F 1027.0 in Calm     84 % 0.0 in
00:55 17.6 °F 14.9 °F 1027.0 in ENE 3.7 mph 3.7 mph 84 % 0.0 in
01:00 17.6 °F 14.9 °F 1027.0 in Calm     84 % 0.0 in
01:05 17.5 °F 14.8 °F 1027.0 in SW 3.7 mph 3.7 mph 84 % 0.0 in
01:10 17.4 °F 14.7 °F 1027.0 in SW 3.7 mph 3.7 mph 84 % 0.0 in
01:15 17.3 °F 14.6 °F 1027.0 in SW 1.9 mph 2.3 mph 84 % 0.0 in
01:20 17.3 °F 14.6 °F 1027.0 in Calm     84 % 0.0 in
01:25 17.3 °F 14.8 °F 1027.0 in Calm     85 % 0.0 in
01:30 17.3 °F 14.8 °F 1027.0 in Calm     85 % 0.0 in
01:35 17.3 °F 14.8 °F 1027.0 in SW 3.7 mph 3.7 mph 85 % 0.0 in
01:40 17.3 °F 14.8 °F 1027.0 in SW 1.9 mph 1.9 mph 85 % 0.0 in
01:45 17.3 °F 14.9 °F 1027.0 in Calm     86 % 0.0 in
01:50 17.3 °F 14.9 °F 1027.0 in Calm     86 % 0.0 in
01:55 17.2 °F 14.8 °F 1027.0 in Calm     86 % 0.0 in
02:00 17.2 °F 14.8 °F 1027.0 in Calm     86 % 0.0 in
02:05 17.2 °F 14.8 °F 1027.0 in WNW 1.9 mph 1.9 mph 86 % 0.0 in
02:10 17.1 °F 14.7 °F 1027.0 in NE 3.7 mph 3.7 mph 86 % 0.0 in
02:15 17.1 °F 14.7 °F 1027.0 in NE 3.7 mph 3.7 mph 86 % 0.0 in
02:20 17.0 °F 14.7 °F 1027.0 in NNE 1.9 mph   86 % 0.0 in
02:25 17.0 °F 14.7 °F 1027.0 in NE 3.7 mph 3.7 mph 86 % 0.0 in
02:30 16.9 °F 14.7 °F 1026.0 in NNE 1.9 mph 1.9 mph 87 % 0.0 in
02:35 16.8 °F 14.6 °F 1026.0 in Calm     87 % 0.0 in
02:40 16.7 °F 14.3 °F 1026.0 in Calm     86 % 0.0 in
02:45 16.6 °F 14.2 °F 1027.0 in WNW 3.7 mph 3.7 mph 86 % 0.0 in
02:50 16.6 °F 14.4 °F 1027.0 in Calm     87 % 0.0 in
02:55 16.5 °F 14.3 °F 1027.0 in Calm     87 % 0.0 in
03:00 16.5 °F 14.3 °F 1026.0 in Calm     87 % 0.0 in
03:05 16.4 °F 14.2 °F 1026.0 in Calm     87 % 0.0 in
03:10 16.4 °F 14.2 °F 1026.0 in Calm     87 % 0.0 in
03:15 16.3 °F 14.3 °F 1026.0 in Calm     88 % 0.0 in
03:20 16.3 °F 14.3 °F 1026.0 in Calm     88 % 0.0 in
03:25 16.3 °F 14.3 °F 1026.0 in Calm     88 % 0.0 in
03:30 16.2 °F 14.2 °F 1026.0 in Calm     88 % 0.0 in
03:35 16.2 °F 14.2 °F 1026.0 in Calm     88 % 0.0 in
03:40 16.2 °F 14.2 °F 1026.0 in Calm     88 % 0.0 in
03:45 16.1 °F 14.1 °F 1026.0 in Calm     88 % 0.0 in
03:50 16.1 °F 14.1 °F 1026.0 in Calm     88 % 0.0 in
03:55 16.0 °F 14.0 °F 1026.0 in Calm     88 % 0.0 in
04:00 15.9 °F 13.9 °F 1026.0 in Calm     88 % 0.0 in
04:05 15.9 °F 14.1 °F 1026.0 in Calm     89 % 0.0 in
04:10 15.9 °F 14.1 °F 1026.0 in Calm     89 % 0.0 in
04:15 15.8 °F 14.0 °F 1024.9 in Calm     89 % 0.0 in
04:20 15.8 °F 14.0 °F 1024.9 in Calm     89 % 0.0 in
04:25 15.8 °F 14.0 °F 1024.9 in Calm     89 % 0.0 in
04:30 15.7 °F 13.9 °F 1026.0 in Calm     89 % 0.0 in
04:35 15.7 °F 13.9 °F 1026.0 in Calm     89 % 0.0 in
04:40 15.6 °F 13.8 °F 1026.0 in Calm     89 % 0.0 in
04:45 15.4 °F 13.6 °F 1026.0 in West 3.2 mph   89 % 0.0 in
04:50 15.3 °F 13.3 °F 1026.0 in West 3.7 mph 3.7 mph 88 % 0.0 in
04:55 15.4 °F 13.6 °F 1026.0 in West 1.9 mph   89 % 0.0 in
05:00 15.3 °F 13.5 °F 1024.9 in Calm     89 % 0.0 in
05:05 15.3 °F 13.7 °F 1024.9 in Calm     90 % 0.0 in
05:10 15.3 °F 13.7 °F 1024.9 in Calm     90 % 0.0 in
05:15 15.3 °F 13.7 °F 1024.9 in Calm     90 % 0.0 in
05:20 15.4 °F 13.8 °F 1024.9 in Calm     90 % 0.0 in
05:25 15.5 °F 13.9 °F 1024.9 in West 2.3 mph 2.3 mph 90 % 0.0 in
05:30 15.6 °F 13.9 °F 1026.0 in West 1.9 mph   90 % 0.0 in
05:35 15.5 °F 14.1 °F 1026.0 in Calm     91 % 0.0 in
05:40 15.5 °F 14.1 °F 1026.0 in Calm     91 % 0.0 in
05:45 15.6 °F 14.1 °F 1024.9 in Calm     91 % 0.0 in
05:50 15.6 °F 14.1 °F 1024.9 in Calm     91 % 0.0 in
05:55 15.6 °F 14.1 °F 1024.9 in Calm     91 % 0.0 in
06:00 15.5 °F 14.1 °F 1024.9 in Calm     91 % 0.0 in
06:05 15.4 °F 13.9 °F 1024.9 in Calm     91 % 0.0 in
06:10 15.4 °F 13.9 °F 1024.9 in Calm     91 % 0.0 in
06:15 15.4 °F 13.9 °F 1026.0 in NW 1.9 mph   91 % 0.0 in
06:20 15.4 °F 13.9 °F 1026.0 in Calm     91 % 0.0 in
06:22 15.4 °F 13.9 °F 1026.0 in Calm     91 % 0.0 in
06:27 15.2 °F 13.7 °F 1024.9 in Calm     91 % 0.0 in
06:32 15.0 °F 13.6 °F 1024.9 in West 3.7 mph 3.7 mph 91 % 0.0 in
06:37 14.8 °F 13.2 °F 1024.9 in Calm     90 % 0.0 in
06:42 14.9 °F 13.3 °F 1026.0 in Calm     90 % 0.0 in
06:47 14.9 °F 13.4 °F 1026.0 in Calm     91 % 0.0 in
06:52 14.9 °F 13.4 °F 1026.0 in West 3.7 mph 3.7 mph 91 % 0.0 in
06:57 14.9 °F 13.4 °F 1026.0 in West 1.9 mph 1.9 mph 91 % 0.0 in
07:02 15.0 °F 13.6 °F 1026.0 in Calm     91 % 0.0 in
07:07 15.0 °F 13.7 °F 1026.0 in Calm     92 % 0.0 in
07:12 15.0 °F 13.7 °F 1026.0 in SW 1.9 mph   92 % 0.0 in
07:17 14.8 °F 13.5 °F 1026.0 in Calm     92 % 0.0 in
07:22 14.7 °F 13.2 °F 1026.0 in Calm     91 % 0.0 in
07:27 14.7 °F 13.2 °F 1026.0 in Calm     91 % 0.0 in
07:32 14.6 °F 13.2 °F 1026.0 in Calm     91 % 0.0 in
07:37 14.6 °F 13.2 °F 1026.0 in Calm     91 % 0.0 in
07:42 14.6 °F 13.2 °F 1026.0 in Calm     91 % 0.0 in
07:47 14.5 °F 13.1 °F 1026.0 in Calm     91 % 0.0 in
07:52 14.5 °F 13.1 °F 1026.0 in Calm     91 % 0.0 in
07:57 14.6 °F 13.2 °F 1026.0 in Calm     91 % 0.0 in
08:02 14.7 °F 13.4 °F 1026.0 in Calm     92 % 0.0 in
08:07 14.8 °F 13.5 °F 1026.0 in Calm     92 % 0.0 in
08:12 14.8 °F 13.5 °F 1026.0 in Calm     92 % 0.0 in
08:17 14.7 °F 13.4 °F 1026.0 in Calm     92 % 0.0 in
08:22 14.7 °F 13.4 °F 1026.0 in Calm     92 % 0.0 in
08:27 14.8 °F 13.7 °F 1027.0 in Calm     93 % 0.0 in
08:32 14.9 °F 13.8 °F 1027.0 in Calm     93 % 0.0 in
08:37 14.9 °F 13.8 °F 1027.0 in Calm     93 % 0.0 in
08:42 15.0 °F 13.9 °F 1027.0 in Calm     93 % 0.0 in
08:47 15.0 °F 13.9 °F 1027.0 in Calm     93 % 0.0 in
08:52 15.2 °F 14.2 °F 1027.0 in Calm     94 % 0.0 in
08:57 15.2 °F 14.1 °F 1027.0 in Calm     93 % 0.0 in
09:02 15.3 °F 14.2 °F 1027.0 in Calm     93 % 0.0 in
09:07 15.5 °F 14.4 °F 1027.0 in Calm     93 % 0.0 in
09:12 15.8 °F 14.8 °F 1027.0 in Calm     94 % 0.0 in
09:17 16.0 °F 15.1 °F 1027.0 in Calm     94 % 0.0 in
09:22 16.0 °F 15.1 °F 1027.0 in SW 1.9 mph   94 % 0.0 in
09:27 15.8 °F 14.7 °F 1027.0 in SW 3.7 mph 3.7 mph 93 % 0.0 in
09:32 15.9 °F 14.8 °F 1027.0 in Calm     93 % 0.0 in
09:37 15.9 °F 14.6 °F 1027.0 in SSW 2.6 mph   92 % 0.0 in
09:42 16.1 °F 14.9 °F 1028.0 in SSE 1.9 mph 1.9 mph 93 % 0.0 in
09:47 16.2 °F 14.9 °F 1028.0 in SW 1.9 mph   92 % 0.0 in
09:52 16.8 °F 15.7 °F 1028.0 in South 3.7 mph 3.7 mph 93 % 0.0 in
09:57 17.1 °F 15.6 °F 1028.0 in SW 3.9 mph   91 % 0.0 in
10:02 17.0 °F 15.3 °F 1028.0 in SW 3.7 mph   90 % 0.0 in
10:07 17.8 °F 16.3 °F 1028.0 in Calm     91 % 0.0 in
10:12 18.0 °F 16.2 °F 1028.0 in NNE 2.3 mph   89 % 0.0 in
10:17 18.2 °F 16.0 °F 1028.0 in ENE 3.9 mph 3.9 mph 87 % 0.0 in
10:22 18.4 °F 16.0 °F 1028.0 in NNE 5.0 mph 5.0 mph 86 % 0.0 in
10:27 18.9 °F 16.3 °F 1028.0 in Calm     85 % 0.0 in
10:29 19.2 °F 16.6 °F 1028.0 in East 2.6 mph 2.6 mph 85 % 0.0 in
10:34 19.7 °F 16.7 °F 1028.0 in NNE 1.9 mph   83 % 0.0 in
10:39 19.9 °F 16.7 °F 1028.0 in NNE 1.9 mph   82 % 0.0 in
10:44 20.2 °F 16.8 °F 1028.0 in ENE 3.7 mph 3.7 mph 81 % 0.0 in
10:49 20.2 °F 16.6 °F 1028.0 in NNE 3.7 mph 3.7 mph 80 % 0.0 in
10:54 19.9 °F 15.7 °F 1028.0 in NNE 5.6 mph 5.6 mph 77 % 0.0 in
10:59 20.0 °F 16.1 °F 1028.0 in NE 3.7 mph 3.7 mph 78 % 0.0 in
11:04 20.5 °F 16.3 °F 1028.0 in NNE 4.2 mph 4.2 mph 77 % 0.0 in
11:09 20.8 °F 16.6 °F 1028.0 in NNE 7.4 mph 7.4 mph 77 % 0.0 in
11:14 21.0 °F 16.4 °F 1028.0 in ENE 3.7 mph 4.2 mph 75 % 0.0 in
11:19 21.2 °F 16.4 °F 1028.0 in ENE 4.2 mph 4.2 mph 74 % 0.0 in
11:24 21.0 °F 16.0 °F 1028.0 in NNE 5.6 mph 5.6 mph 73 % 0.0 in
11:29 21.4 °F 16.6 °F 1028.0 in NE 3.9 mph 3.9 mph 74 % 0.0 in
11:34 21.7 °F 16.9 °F 1028.0 in SW 5.6 mph 5.6 mph 74 % 0.0 in
11:39 22.0 °F 16.9 °F 1028.0 in NNE 7.4 mph 7.4 mph 73 % 0.0 in
11:44 21.5 °F 16.2 °F 1028.0 in NE 7.4 mph 7.4 mph 72 % 0.0 in
11:49 21.6 °F 16.3 °F 1028.0 in ENE 3.7 mph 3.7 mph 72 % 0.0 in
11:54 22.5 °F 17.0 °F 1028.0 in SSE 3.7 mph 3.7 mph 71 % 0.0 in
11:59 22.3 °F 16.6 °F 1028.0 in WNW 3.7 mph 3.7 mph 70 % 0.0 in
12:04 21.9 °F 15.9 °F 1028.0 in ESE 9.3 mph 9.3 mph 69 % 0.0 in
12:09 22.2 °F 16.2 °F 1028.0 in ENE 5.6 mph 5.6 mph 69 % 0.0 in
12:14 22.6 °F 16.2 °F 1027.0 in SSE 5.6 mph 5.6 mph 67 % 0.0 in
12:19 22.6 °F 16.2 °F 1027.0 in ESE 7.4 mph 7.4 mph 67 % 0.0 in
12:24 22.9 °F 16.4 °F 1027.0 in South 5.6 mph 5.6 mph 67 % 0.0 in
12:29 23.2 °F 16.0 °F 1028.0 in SSE 9.3 mph 9.3 mph 64 % 0.0 in
12:34 22.8 °F 15.9 °F 1028.0 in NE 5.6 mph 5.6 mph 65 % 0.0 in
12:39 23.2 °F 16.0 °F 1028.0 in ESE 3.7 mph 3.7 mph 64 % 0.0 in
12:44 23.6 °F 16.2 °F 1027.0 in ESE 5.6 mph 5.6 mph 63 % 0.0 in
12:49 23.0 °F 15.3 °F 1027.0 in ENE 7.4 mph 7.4 mph 62 % 0.0 in
12:54 22.8 °F 15.6 °F 1027.0 in ENE 3.7 mph 3.7 mph 64 % 0.0 in
12:59 23.5 °F 16.1 °F 1027.0 in SSE 5.6 mph 5.6 mph 63 % 0.0 in
13:04 23.1 °F 15.7 °F 1027.0 in East 5.6 mph 5.6 mph 63 % 0.0 in
13:09 22.8 °F 15.4 °F 1027.0 in ESE 5.6 mph 5.6 mph 63 % 0.0 in
13:14 23.0 °F 15.6 °F 1027.0 in Calm     63 % 0.0 in
13:19 23.1 °F 15.7 °F 1027.0 in ESE 4.7 mph   63 % 0.0 in
13:24 23.2 °F 15.5 °F 1027.0 in South 5.6 mph 5.6 mph 62 % 0.0 in
13:29 22.8 °F 15.4 °F 1027.0 in South 5.6 mph 5.6 mph 63 % 0.0 in
13:34 22.8 °F 15.6 °F 1027.0 in ENE 1.9 mph 2.3 mph 64 % 0.0 in
13:39 22.8 °F 15.1 °F 1027.0 in SSE 3.7 mph 3.7 mph 62 % 0.0 in
13:44 23.0 °F 15.3 °F 1027.0 in East 6.1 mph 6.1 mph 62 % 0.0 in
13:49 22.9 °F 15.2 °F 1027.0 in ESE 5.6 mph 5.6 mph 62 % 0.0 in
13:54 23.1 °F 15.4 °F 1027.0 in ESE 5.0 mph 5.0 mph 62 % 0.0 in
13:59 24.0 °F 16.3 °F 1026.0 in WSW 7.4 mph 7.4 mph 62 % 0.0 in
14:04 24.0 °F 15.5 °F 1026.0 in East 7.4 mph 7.4 mph 59 % 0.0 in
14:09 23.7 °F 15.7 °F 1026.0 in East 4.7 mph 4.7 mph 61 % 0.0 in
14:14 23.9 °F 15.7 °F 1026.0 in ESE 5.8 mph 5.8 mph 60 % 0.0 in
14:19 24.1 °F 15.6 °F 1026.0 in SW 2.6 mph   59 % 0.0 in
14:24 24.1 °F 15.6 °F 1026.0 in SSW 7.4 mph 7.4 mph 59 % 0.0 in
14:29 24.5 °F 15.4 °F 1026.0 in South 7.4 mph 7.4 mph 57 % 0.0 in
14:34 24.7 °F 15.6 °F 1026.0 in West 5.0 mph 5.0 mph 57 % 0.0 in
14:39 24.4 °F 15.3 °F 1026.0 in ESE 7.2 mph 7.2 mph 57 % 0.0 in
14:44 24.3 °F 15.2 °F 1026.0 in ESE 7.9 mph 7.9 mph 57 % 0.0 in
14:49 24.1 °F 14.8 °F 1026.0 in WSW 7.4 mph 7.4 mph 56 % 0.0 in
14:54 24.0 °F 14.9 °F 1026.0 in SE 5.6 mph 5.6 mph 57 % 0.0 in
14:59 24.3 °F 15.2 °F 1026.0 in South 5.6 mph 5.6 mph 57 % 0.0 in
15:04 25.0 °F 15.9 °F 1026.0 in West 5.6 mph 5.6 mph 57 % 0.0 in
15:09 25.1 °F 15.4 °F 1026.0 in SE 7.4 mph 7.4 mph 55 % 0.0 in
15:14 25.0 °F 15.3 °F 1026.0 in SE 7.9 mph 7.9 mph 55 % 0.0 in
15:19 24.6 °F 14.9 °F 1026.0 in ESE 11.4 mph 11.4 mph 55 % 0.0 in
15:24 24.2 °F 14.9 °F 1026.0 in SE 10.8 mph 10.8 mph 56 % 0.0 in
15:29 24.2 °F 14.9 °F 1024.9 in WSW 5.6 mph 5.6 mph 56 % 0.0 in
15:34 24.3 °F 14.9 °F 1024.9 in SE 11.1 mph 11.1 mph 56 % 0.0 in
15:39 24.1 °F 14.5 °F 1024.9 in SE 13.7 mph 13.7 mph 55 % 0.0 in
15:44 23.9 °F 14.6 °F 1024.9 in East 11.1 mph 11.1 mph 56 % 0.0 in
15:49 23.9 °F 14.6 °F 1024.9 in ESE 13.0 mph 13.0 mph 56 % 0.0 in
15:54 23.8 °F 14.5 °F 1024.9 in East 14.8 mph 14.8 mph 56 % 0.0 in
15:59 23.6 °F 14.3 °F 1024.9 in East 13.0 mph 13.0 mph 56 % 0.0 in
16:04 23.5 °F 14.5 °F 1024.9 in SE 12.2 mph 12.2 mph 57 % 0.0 in
16:09 23.3 °F 14.3 °F 1024.9 in East 7.4 mph 7.4 mph 57 % 0.0 in
16:14 23.2 °F 14.2 °F 1023.9 in SE 14.8 mph 14.8 mph 57 % 0.0 in
16:19 23.1 °F 14.1 °F 1023.9 in ESE 11.1 mph 11.1 mph 57 % 0.0 in
16:24 23.0 °F 14.3 °F 1023.9 in ESE 9.3 mph 9.3 mph 58 % 0.0 in
16:29 23.0 °F 14.3 °F 1024.9 in SE 9.3 mph 9.3 mph 58 % 0.0 in
16:34 22.9 °F 14.2 °F 1024.9 in ESE 11.1 mph 11.1 mph 58 % 0.0 in
16:39 22.7 °F 14.0 °F 1024.9 in East 13.0 mph 13.0 mph 58 % 0.0 in
16:44 22.7 °F 14.3 °F 1023.9 in ENE 13.0 mph 13.0 mph 59 % 0.0 in
16:49 22.7 °F 14.3 °F 1023.9 in SE 11.1 mph 11.1 mph 59 % 0.0 in
16:54 22.7 °F 14.3 °F 1023.9 in ESE 11.4 mph 11.4 mph 59 % 0.0 in
16:59 22.9 °F 14.4 °F 1023.9 in East 11.1 mph 11.1 mph 59 % 0.0 in
17:04 23.0 °F 14.6 °F 1023.9 in ESE 11.1 mph 11.1 mph 59 % 0.0 in
17:09 22.8 °F 14.4 °F 1023.9 in East 13.0 mph 13.0 mph 59 % 0.0 in
17:14 22.8 °F 14.1 °F 1023.9 in SSE 14.8 mph 14.8 mph 58 % 0.0 in
17:19 22.7 °F 14.0 °F 1023.9 in ESE 11.1 mph 11.1 mph 58 % 0.0 in
17:24 22.8 °F 14.1 °F 1023.9 in SSE 13.0 mph 13.0 mph 58 % 0.0 in
17:29 22.8 °F 14.1 °F 1023.9 in ENE 11.4 mph 11.4 mph 58 % 0.0 in
17:34 22.7 °F 14.0 °F 1023.9 in SE 13.0 mph 13.0 mph 58 % 0.0 in
17:39 22.6 °F 13.9 °F 1023.9 in SE 11.1 mph 11.1 mph 58 % 0.0 in
17:44 22.5 °F 13.8 °F 1024.9 in ESE 11.9 mph 11.9 mph 58 % 0.0 in
17:49 22.5 °F 13.8 °F 1024.9 in East 13.0 mph 13.0 mph 58 % 0.0 in
17:54 22.5 °F 13.8 °F 1024.9 in ESE 9.3 mph 9.3 mph 58 % 0.0 in
17:59 22.6 °F 13.9 °F 1023.9 in ESE 5.6 mph 5.6 mph 58 % 0.0 in
18:04 22.8 °F 14.4 °F 1023.9 in West 6.1 mph 6.1 mph 59 % 0.0 in
18:09 22.8 °F 14.1 °F 1023.9 in SSE 7.4 mph 7.4 mph 58 % 0.0 in
18:14 22.6 °F 13.9 °F 1023.9 in South 5.6 mph 5.6 mph 58 % 0.0 in
18:19 22.5 °F 13.8 °F 1023.9 in South 7.4 mph 7.4 mph 58 % 0.0 in
18:24 22.4 °F 13.7 °F 1023.9 in East 3.9 mph 3.9 mph 58 % 0.0 in
18:29 22.2 °F 13.6 °F 1023.9 in ESE 10.3 mph 10.3 mph 58 % 0.0 in
18:34 22.1 °F 13.4 °F 1023.9 in SSE 7.4 mph 7.4 mph 58 % 0.0 in
18:39 21.9 °F 13.5 °F 1023.9 in ESE 9.3 mph 9.3 mph 59 % 0.0 in
18:44 21.7 °F 13.6 °F 1024.9 in ESE 3.7 mph 3.7 mph 60 % 0.0 in
18:49 21.5 °F 13.4 °F 1024.9 in SSE 7.4 mph 7.4 mph 60 % 0.0 in
18:54 21.4 °F 13.3 °F 1024.9 in ESE 7.6 mph 7.6 mph 60 % 0.0 in
18:59 21.2 °F 13.4 °F 1024.9 in SE 6.1 mph 6.1 mph 61 % 0.0 in
19:04 21.1 °F 13.3 °F 1024.9 in South 5.6 mph   61 % 0.0 in
19:09 21.0 °F 13.2 °F 1024.9 in Calm     61 % 0.0 in
19:14 20.8 °F 13.3 °F 1024.9 in Calm     62 % 0.0 in
19:19 20.7 °F 13.2 °F 1024.9 in SSE 3.7 mph   62 % 0.0 in
19:24 20.5 °F 13.2 °F 1024.9 in SSE 3.7 mph 3.7 mph 63 % 0.0 in
19:29 20.4 °F 13.1 °F 1026.0 in Calm     63 % 0.0 in
19:34 20.3 °F 13.0 °F 1026.0 in SW 1.9 mph 1.9 mph 63 % 0.0 in
19:39 20.2 °F 13.2 °F 1026.0 in Calm     64 % 0.0 in
19:44 20.0 °F 13.0 °F 1026.0 in Calm     64 % 0.0 in
19:49 19.9 °F 13.1 °F 1026.0 in SW 1.9 mph 1.9 mph 65 % 0.0 in
19:54 19.8 °F 13.1 °F 1026.0 in SW 1.9 mph   65 % 0.0 in
19:59 19.7 °F 13.2 °F 1026.0 in WSW 3.9 mph 3.9 mph 66 % 0.0 in
20:04 19.5 °F 13.0 °F 1026.0 in WSW 2.6 mph 2.6 mph 66 % 0.0 in
20:05 16.7 °F 12.7 °F 1026.0 in Calm     77 % 0.0 in
20:09 19.4 °F 12.9 °F 1026.0 in Calm   1.4 mph 66 % 0.0 in
20:14 19.3 °F 12.8 °F 1026.0 in SW 1.9 mph   66 % 0.0 in
20:15 16.6 °F 12.7 °F 1024.9 in Calm     78 % 0.0 in
20:19 19.3 °F 13.0 °F 1026.0 in Calm     67 % 0.0 in
20:24 19.2 °F 12.9 °F 1026.0 in Calm     67 % 0.0 in
20:25 16.4 °F 12.6 °F 1024.9 in Calm     78 % 0.0 in
20:29 19.0 °F 12.7 °F 1024.9 in Calm     67 % 0.0 in
20:34 19.0 °F 12.9 °F 1024.9 in Calm     68 % 0.0 in
20:35 16.3 °F 12.7 °F 1026.0 in Calm     79 % 0.0 in
20:39 18.9 °F 13.1 °F 1024.9 in Calm     69 % 0.0 in
20:44 18.8 °F 13.0 °F 1026.0 in Calm     69 % 0.0 in
20:45 16.2 °F 12.6 °F 1026.0 in Calm     79 % 0.0 in
20:49 18.8 °F 13.0 °F 1026.0 in Calm     69 % 0.0 in
20:54 18.8 °F 13.0 °F 1026.0 in Calm     69 % 0.0 in
20:55 16.1 °F 12.4 °F 1026.0 in Calm     79 % 0.0 in
20:59 18.8 °F 13.2 °F 1024.9 in Calm     70 % 0.0 in
21:04 18.8 °F 13.2 °F 1024.9 in WSW 1.9 mph   70 % 0.0 in
21:05 16.0 °F 12.3 °F 1026.0 in Calm     79 % 0.0 in
21:09 18.8 °F 13.2 °F 1024.9 in WSW 2.3 mph   70 % 0.0 in
21:14 18.9 °F 13.3 °F 1024.9 in Calm     70 % 0.0 in
21:15 15.9 °F 12.4 °F 1024.9 in Calm     80 % 0.0 in
21:19 18.8 °F 13.2 °F 1024.9 in Calm     70 % 0.0 in
21:24 18.8 °F 13.2 °F 1024.9 in Calm     70 % 0.0 in
21:25 15.7 °F 12.3 °F 1024.9 in Calm     80 % 0.0 in
21:29 18.8 °F 13.2 °F 1026.0 in Calm     70 % 0.0 in
21:34 18.8 °F 13.4 °F 1026.0 in Calm     71 % 0.0 in
21:35 15.6 °F 12.2 °F 1024.9 in Calm   3.2 mph 80 % 0.0 in
21:39 18.8 °F 13.4 °F 1026.0 in WSW 1.9 mph   71 % 0.0 in
21:44 18.8 °F 13.4 °F 1024.9 in Calm     71 % 0.0 in
21:45 15.6 °F 12.3 °F 1024.9 in Calm     81 % 0.0 in
21:49 18.8 °F 13.4 °F 1024.9 in Calm     71 % 0.0 in
21:54 18.8 °F 13.4 °F 1024.9 in Calm     71 % 0.0 in
21:55 15.6 °F 12.2 °F 1024.9 in East 1.6 mph 1.6 mph 80 % 0.0 in
21:59 18.8 °F 13.4 °F 1026.0 in Calm     71 % 0.0 in
22:00 18.8 °F 13.4 °F 1026.0 in Calm     71 % 0.0 in
22:05 18.8 °F 13.4 °F 1026.0 in Calm     71 % 0.0 in
22:10 18.8 °F 13.4 °F 1026.0 in Calm     71 % 0.0 in
22:15 18.8 °F 13.4 °F 1026.0 in Calm     71 % 0.0 in
22:20 18.8 °F 13.4 °F 1026.0 in WSW 3.7 mph 3.7 mph 71 % 0.0 in
22:25 18.9 °F 13.5 °F 1026.0 in Calm     71 % 0.0 in
22:30 18.9 °F 13.5 °F 1026.0 in Calm     71 % 0.0 in
22:35 18.8 °F 13.4 °F 1026.0 in Calm     71 % 0.0 in
22:40 18.8 °F 13.4 °F 1026.0 in WSW 1.9 mph 1.9 mph 71 % 0.0 in
22:45 18.7 °F 13.6 °F 1027.0 in WSW 1.9 mph   72 % 0.0 in
22:50 18.6 °F 13.4 °F 1027.0 in Calm   1.6 mph 72 % 0.0 in
22:55 18.5 °F 13.3 °F 1027.0 in Calm     72 % 0.0 in
23:00 18.4 °F 13.3 °F 1026.0 in Calm     72 % 0.0 in
23:05 18.3 °F 13.2 °F 1026.0 in Calm     72 % 0.0 in
23:10 18.2 °F 13.1 °F 1026.0 in WSW 3.2 mph   72 % 0.0 in
23:15 17.9 °F 12.8 °F 1026.0 in WSW 3.2 mph 3.2 mph 72 % 0.0 in
23:20 17.7 °F 12.8 °F 1026.0 in WSW 2.3 mph 2.3 mph 73 % 0.0 in
23:25 17.6 °F 12.7 °F 1026.0 in WSW 1.6 mph 3.2 mph 73 % 0.0 in
23:30 17.6 °F 12.7 °F 1026.0 in Calm   3.2 mph 73 % 0.0 in
23:35 17.6 °F 12.9 °F 1026.0 in Calm     74 % 0.0 in
23:40 17.6 °F 12.9 °F 1026.0 in Calm     74 % 0.0 in
23:45 17.5 °F 12.8 °F 1026.0 in Calm     74 % 0.0 in
23:50 17.3 °F 12.6 °F 1026.0 in WSW 1.9 mph 1.9 mph 74 % 0.0 in
23:55 17.3 °F 12.8 °F 1026.0 in Calm     75 % 0.0 in
Meteo Sesrovires
Elogis d' Weather Underground - 1.75 mb

Guio original per  Jim McMurry - jmcmurry@mwt.net Adaptat per a la plantilla per  Wim van der Kuil - Leuven-Template.eu

Trobareu la nostra informacio del temps tambe a:

Weather Underground

AWEKAS